sensor_id;sensor_type;location;lat;lon;timestamp;P1;P2;P0
56360;PMS7003;42611;51.132;13.588;2022-12-18T00:02:02;51.0;43.0;
56360;PMS7003;42611;51.132;13.588;2022-12-18T00:07:01;55.5;45.5;
56360;PMS7003;42611;51.132;13.588;2022-12-18T00:12:15;57.0;46.4;
56360;PMS7003;42611;51.132;13.588;2022-12-18T00:17:01;58.7;47.8;
56360;PMS7003;42611;51.132;13.588;2022-12-18T00:22:01;61.5;49.7;
56360;PMS7003;42611;51.132;13.588;2022-12-18T00:27:01;58.0;48.6;
56360;PMS7003;42611;51.132;13.588;2022-12-18T00:32:01;58.3;47.6;
56360;PMS7003;42611;51.132;13.588;2022-12-18T00:37:01;53.3;42.8;
56360;PMS7003;42611;51.132;13.588;2022-12-18T00:42:01;53.8;42.0;
56360;PMS7003;42611;51.132;13.588;2022-12-18T00:47:01;54.3;42.5;
56360;PMS7003;42611;51.132;13.588;2022-12-18T00:52:02;61.0;46.7;
56360;PMS7003;42611;51.132;13.588;2022-12-18T00:57:01;60.5;46.6;
56360;PMS7003;42611;51.132;13.588;2022-12-18T01:02:01;69.4;53.4;
56360;PMS7003;42611;51.132;13.588;2022-12-18T01:07:02;70.3;54.0;
56360;PMS7003;42611;51.132;13.588;2022-12-18T01:12:01;72.5;54.7;
56360;PMS7003;42611;51.132;13.588;2022-12-18T01:17:01;71.6;54.2;
56360;PMS7003;42611;51.132;13.588;2022-12-18T01:22:01;72.4;55.6;
56360;PMS7003;42611;51.132;13.588;2022-12-18T01:27:01;72.7;56.0;
56360;PMS7003;42611;51.132;13.588;2022-12-18T01:32:02;75.1;57.7;
56360;PMS7003;42611;51.132;13.588;2022-12-18T01:37:02;72.3;56.9;
56360;PMS7003;42611;51.132;13.588;2022-12-18T01:42:11;73.4;57.8;
56360;PMS7003;42611;51.132;13.588;2022-12-18T01:47:01;71.5;56.3;
56360;PMS7003;42611;51.132;13.588;2022-12-18T01:52:01;66.0;51.8;
56360;PMS7003;42611;51.132;13.588;2022-12-18T01:57:02;61.9;50.1;
56360;PMS7003;42611;51.132;13.588;2022-12-18T02:07:34;60.1;48.1;
56360;PMS7003;42611;51.132;13.588;2022-12-18T02:12:12;57.5;47.8;
56360;PMS7003;42611;51.132;13.588;2022-12-18T02:17:36;60.2;49.7;
56360;PMS7003;42611;51.132;13.588;2022-12-18T02:22:13;58.2;48.6;
56360;PMS7003;42611;51.132;13.588;2022-12-18T02:27:03;55.3;47.4;
56360;PMS7003;42611;51.132;13.588;2022-12-18T02:32:02;56.4;47.4;
56360;PMS7003;42611;51.132;13.588;2022-12-18T02:37:02;58.7;48.1;
56360;PMS7003;42611;51.132;13.588;2022-12-18T02:42:01;58.3;48.7;
56360;PMS7003;42611;51.132;13.588;2022-12-18T02:47:01;62.7;51.4;
56360;PMS7003;42611;51.132;13.588;2022-12-18T02:52:05;66.3;52.7;
56360;PMS7003;42611;51.132;13.588;2022-12-18T02:57:06;67.2;52.8;
56360;PMS7003;42611;51.132;13.588;2022-12-18T03:02:05;63.9;48.3;
56360;PMS7003;42611;51.132;13.588;2022-12-18T03:07:02;56.7;42.9;
56360;PMS7003;42611;51.132;13.588;2022-12-18T03:12:13;54.5;40.9;
56360;PMS7003;42611;51.132;13.588;2022-12-18T03:17:02;54.1;41.3;
56360;PMS7003;42611;51.132;13.588;2022-12-18T03:22:08;53.4;42.2;
56360;PMS7003;42611;51.132;13.588;2022-12-18T03:27:04;57.0;46.8;
56360;PMS7003;42611;51.132;13.588;2022-12-18T03:32:19;60.4;49.4;
56360;PMS7003;42611;51.132;13.588;2022-12-18T03:37:07;58.8;47.4;
56360;PMS7003;42611;51.132;13.588;2022-12-18T03:42:05;56.2;46.1;
56360;PMS7003;42611;51.132;13.588;2022-12-18T03:47:19;56.8;45.7;
56360;PMS7003;42611;51.132;13.588;2022-12-18T03:52:07;49.7;40.5;
56360;PMS7003;42611;51.132;13.588;2022-12-18T03:57:04;50.6;41.2;
56360;PMS7003;42611;51.132;13.588;2022-12-18T04:02:05;51.8;43.0;
56360;PMS7003;42611;51.132;13.588;2022-12-18T04:07:02;52.8;43.0;
56360;PMS7003;42611;51.132;13.588;2022-12-18T04:12:01;47.9;41.3;
56360;PMS7003;42611;51.132;13.588;2022-12-18T04:17:01;55.5;46.3;
56360;PMS7003;42611;51.132;13.588;2022-12-18T04:22:01;48.7;39.9;
56360;PMS7003;42611;51.132;13.588;2022-12-18T04:27:01;44.7;36.7;
56360;PMS7003;42611;51.132;13.588;2022-12-18T04:32:03;44.6;36.9;
56360;PMS7003;42611;51.132;13.588;2022-12-18T04:37:01;47.8;38.4;
56360;PMS7003;42611;51.132;13.588;2022-12-18T04:42:01;46.9;38.6;
56360;PMS7003;42611;51.132;13.588;2022-12-18T04:47:01;53.3;44.9;
56360;PMS7003;42611;51.132;13.588;2022-12-18T04:52:01;56.0;47.5;
56360;PMS7003;42611;51.132;13.588;2022-12-18T04:57:02;53.0;44.5;
56360;PMS7003;42611;51.132;13.588;2022-12-18T05:02:02;47.7;40.0;
56360;PMS7003;42611;51.132;13.588;2022-12-18T05:07:02;44.3;37.7;
56360;PMS7003;42611;51.132;13.588;2022-12-18T05:12:01;43.0;37.1;
56360;PMS7003;42611;51.132;13.588;2022-12-18T05:17:02;41.0;35.8;
56360;PMS7003;42611;51.132;13.588;2022-12-18T05:22:01;42.4;37.0;
56360;PMS7003;42611;51.132;13.588;2022-12-18T05:27:01;41.5;37.4;
56360;PMS7003;42611;51.132;13.588;2022-12-18T05:37:01;42.4;38.3;
56360;PMS7003;42611;51.132;13.588;2022-12-18T05:42:01;44.6;38.8;
56360;PMS7003;42611;51.132;13.588;2022-12-18T05:47:01;40.2;33.6;
56360;PMS7003;42611;51.132;13.588;2022-12-18T05:52:01;40.6;34.4;
56360;PMS7003;42611;51.132;13.588;2022-12-18T05:57:01;39.0;31.6;
56360;PMS7003;42611;51.132;13.588;2022-12-18T06:02:02;36.3;28.8;
56360;PMS7003;42611;51.132;13.588;2022-12-18T06:07:07;34.4;28.9;
56360;PMS7003;42611;51.132;13.588;2022-12-18T06:12:01;36.6;32.8;
56360;PMS7003;42611;51.132;13.588;2022-12-18T06:17:01;38.3;34.1;
56360;PMS7003;42611;51.132;13.588;2022-12-18T06:22:01;38.1;33.8;
56360;PMS7003;42611;51.132;13.588;2022-12-18T06:27:01;39.2;35.5;
56360;PMS7003;42611;51.132;13.588;2022-12-18T06:32:02;41.2;34.9;
56360;PMS7003;42611;51.132;13.588;2022-12-18T06:37:01;40.6;34.4;
56360;PMS7003;42611;51.132;13.588;2022-12-18T06:42:03;39.1;32.5;
56360;PMS7003;42611;51.132;13.588;2022-12-18T06:47:01;38.7;33.3;
56360;PMS7003;42611;51.132;13.588;2022-12-18T06:52:01;39.5;33.5;
56360;PMS7003;42611;51.132;13.588;2022-12-18T06:57:01;39.1;34.8;
56360;PMS7003;42611;51.132;13.588;2022-12-18T07:02:02;39.0;34.7;
56360;PMS7003;42611;51.132;13.588;2022-12-18T07:07:01;37.6;33.2;
56360;PMS7003;42611;51.132;13.588;2022-12-18T07:12:01;38.8;33.8;
56360;PMS7003;42611;51.132;13.588;2022-12-18T07:17:04;37.0;32.6;
56360;PMS7003;42611;51.132;13.588;2022-12-18T07:22:01;34.8;30.4;
56360;PMS7003;42611;51.132;13.588;2022-12-18T07:27:01;34.3;29.4;
56360;PMS7003;42611;51.132;13.588;2022-12-18T07:32:02;36.1;31.7;
56360;PMS7003;42611;51.132;13.588;2022-12-18T07:37:02;35.3;31.4;
56360;PMS7003;42611;51.132;13.588;2022-12-18T07:42:01;35.6;31.4;
56360;PMS7003;42611;51.132;13.588;2022-12-18T07:47:01;37.5;33.4;
56360;PMS7003;42611;51.132;13.588;2022-12-18T07:52:01;39.0;33.8;
56360;PMS7003;42611;51.132;13.588;2022-12-18T07:57:01;44.4;36.2;
56360;PMS7003;42611;51.132;13.588;2022-12-18T08:02:02;45.9;37.2;
56360;PMS7003;42611;51.132;13.588;2022-12-18T08:07:02;47.7;39.1;
56360;PMS7003;42611;51.132;13.588;2022-12-18T08:12:01;46.4;38.1;
56360;PMS7003;42611;51.132;13.588;2022-12-18T08:17:07;46.0;39.2;
56360;PMS7003;42611;51.132;13.588;2022-12-18T08:22:02;40.3;36.6;
56360;PMS7003;42611;51.132;13.588;2022-12-18T08:27:16;40.5;36.4;
56360;PMS7003;42611;51.132;13.588;2022-12-18T08:32:01;42.2;37.7;
56360;PMS7003;42611;51.132;13.588;2022-12-18T08:37:01;41.7;36.8;
56360;PMS7003;42611;51.132;13.588;2022-12-18T08:42:11;42.4;37.1;
56360;PMS7003;42611;51.132;13.588;2022-12-18T08:47:01;47.5;40.4;
56360;PMS7003;42611;51.132;13.588;2022-12-18T08:52:02;48.2;41.8;
56360;PMS7003;42611;51.132;13.588;2022-12-18T08:57:01;48.7;41.7;
56360;PMS7003;42611;51.132;13.588;2022-12-18T09:02:03;50.4;43.9;
56360;PMS7003;42611;51.132;13.588;2022-12-18T09:07:02;51.5;44.4;
56360;PMS7003;42611;51.132;13.588;2022-12-18T09:12:03;51.8;44.0;
56360;PMS7003;42611;51.132;13.588;2022-12-18T09:17:02;53.4;44.7;
56360;PMS7003;42611;51.132;13.588;2022-12-18T09:22:02;53.9;45.0;
56360;PMS7003;42611;51.132;13.588;2022-12-18T09:27:01;58.8;46.4;
56360;PMS7003;42611;51.132;13.588;2022-12-18T09:32:07;60.6;48.4;
56360;PMS7003;42611;51.132;13.588;2022-12-18T09:37:02;60.9;48.4;
56360;PMS7003;42611;51.132;13.588;2022-12-18T09:42:02;60.4;48.2;
56360;PMS7003;42611;51.132;13.588;2022-12-18T09:47:34;59.8;47.8;
56360;PMS7003;42611;51.132;13.588;2022-12-18T09:52:04;53.8;45.8;
56360;PMS7003;42611;51.132;13.588;2022-12-18T09:57:04;56.0;46.0;
56360;PMS7003;42611;51.132;13.588;2022-12-18T10:02:19;55.3;46.0;
56360;PMS7003;42611;51.132;13.588;2022-12-18T10:07:13;57.9;47.4;
56360;PMS7003;42611;51.132;13.588;2022-12-18T10:13:09;58.6;47.9;
56360;PMS7003;42611;51.132;13.588;2022-12-18T10:17:20;63.9;51.3;
56360;PMS7003;42611;51.132;13.588;2022-12-18T10:22:36;65.4;53.0;
56360;PMS7003;42611;51.132;13.588;2022-12-18T10:27:09;67.9;54.4;
56360;PMS7003;42611;51.132;13.588;2022-12-18T10:32:01;69.6;55.8;
56360;PMS7003;42611;51.132;13.588;2022-12-18T10:37:06;73.4;57.9;
56360;PMS7003;42611;51.132;13.588;2022-12-18T10:42:09;75.4;58.4;
56360;PMS7003;42611;51.132;13.588;2022-12-18T10:47:14;75.3;58.7;
56360;PMS7003;42611;51.132;13.588;2022-12-18T10:52:17;74.8;58.4;
56360;PMS7003;42611;51.132;13.588;2022-12-18T10:57:48;74.2;57.4;
56360;PMS7003;42611;51.132;13.588;2022-12-18T11:02:07;71.7;56.4;
56360;PMS7003;42611;51.132;13.588;2022-12-18T11:07:02;67.1;52.5;
56360;PMS7003;42611;51.132;13.588;2022-12-18T11:12:08;66.1;51.3;
56360;PMS7003;42611;51.132;13.588;2022-12-18T11:17:18;61.7;49.0;
56360;PMS7003;42611;51.132;13.588;2022-12-18T11:22:02;57.5;46.9;
56360;PMS7003;42611;51.132;13.588;2022-12-18T11:27:02;55.0;45.4;
56360;PMS7003;42611;51.132;13.588;2022-12-18T11:32:24;55.9;46.1;
56360;PMS7003;42611;51.132;13.588;2022-12-18T11:37:01;53.1;44.4;
56360;PMS7003;42611;51.132;13.588;2022-12-18T11:42:04;54.0;44.7;
56360;PMS7003;42611;51.132;13.588;2022-12-18T11:47:03;54.7;44.5;
56360;PMS7003;42611;51.132;13.588;2022-12-18T11:52:35;51.5;41.5;
56360;PMS7003;42611;51.132;13.588;2022-12-18T11:57:08;49.7;41.4;
56360;PMS7003;42611;51.132;13.588;2022-12-18T12:02:14;51.4;42.2;
56360;PMS7003;42611;51.132;13.588;2022-12-18T12:07:40;51.7;42.2;
56360;PMS7003;42611;51.132;13.588;2022-12-18T12:17:11;54.1;43.8;
56360;PMS7003;42611;51.132;13.588;2022-12-18T12:22:12;56.6;43.9;
56360;PMS7003;42611;51.132;13.588;2022-12-18T12:27:04;55.8;43.8;
56360;PMS7003;42611;51.132;13.588;2022-12-18T12:32:28;54.9;43.6;
56360;PMS7003;42611;51.132;13.588;2022-12-18T12:38:08;56.1;43.8;
56360;PMS7003;42611;51.132;13.588;2022-12-18T12:42:02;57.5;45.5;
56360;PMS7003;42611;51.132;13.588;2022-12-18T12:47:04;57.2;46.5;
56360;PMS7003;42611;51.132;13.588;2022-12-18T12:52:04;56.6;45.9;
56360;PMS7003;42611;51.132;13.588;2022-12-18T12:57:03;56.2;45.6;
56360;PMS7003;42611;51.132;13.588;2022-12-18T13:02:05;56.0;46.2;
56360;PMS7003;42611;51.132;13.588;2022-12-18T13:07:05;56.2;45.6;
56360;PMS7003;42611;51.132;13.588;2022-12-18T13:12:02;55.0;44.3;
56360;PMS7003;42611;51.132;13.588;2022-12-18T13:17:34;55.1;44.3;
56360;PMS7003;42611;51.132;13.588;2022-12-18T13:22:02;57.0;45.0;
56360;PMS7003;42611;51.132;13.588;2022-12-18T13:27:08;57.4;44.9;
56360;PMS7003;42611;51.132;13.588;2022-12-18T13:32:01;55.2;43.8;
56360;PMS7003;42611;51.132;13.588;2022-12-18T13:38:24;53.5;43.2;
56360;PMS7003;42611;51.132;13.588;2022-12-18T13:47:01;50.8;42.4;
56360;PMS7003;42611;51.132;13.588;2022-12-18T13:52:01;50.4;42.4;
56360;PMS7003;42611;51.132;13.588;2022-12-18T13:57:02;50.9;43.4;
56360;PMS7003;42611;51.132;13.588;2022-12-18T14:02:23;52.9;44.8;
56360;PMS7003;42611;51.132;13.588;2022-12-18T14:07:02;52.3;43.9;
56360;PMS7003;42611;51.132;13.588;2022-12-18T14:12:01;53.5;43.8;
56360;PMS7003;42611;51.132;13.588;2022-12-18T14:17:03;51.2;42.7;
56360;PMS7003;42611;51.132;13.588;2022-12-18T14:22:01;49.7;41.6;
56360;PMS7003;42611;51.132;13.588;2022-12-18T14:27:12;50.1;41.7;
56360;PMS7003;42611;51.132;13.588;2022-12-18T14:32:05;46.5;38.1;
56360;PMS7003;42611;51.132;13.588;2022-12-18T14:37:01;43.6;36.4;
56360;PMS7003;42611;51.132;13.588;2022-12-18T14:42:01;45.5;37.4;
56360;PMS7003;42611;51.132;13.588;2022-12-18T14:47:01;46.2;37.3;
56360;PMS7003;42611;51.132;13.588;2022-12-18T14:52:02;43.5;36.2;
56360;PMS7003;42611;51.132;13.588;2022-12-18T14:57:03;46.0;40.1;
56360;PMS7003;42611;51.132;13.588;2022-12-18T15:02:24;47.5;40.9;
56360;PMS7003;42611;51.132;13.588;2022-12-18T15:07:20;53.4;44.5;
56360;PMS7003;42611;51.132;13.588;2022-12-18T15:12:01;56.2;46.8;
56360;PMS7003;42611;51.132;13.588;2022-12-18T15:22:17;59.4;46.8;
56360;PMS7003;42611;51.132;13.588;2022-12-18T15:27:18;58.8;46.9;
56360;PMS7003;42611;51.132;13.588;2022-12-18T15:32:04;52.5;42.8;
56360;PMS7003;42611;51.132;13.588;2022-12-18T15:37:01;49.6;40.8;
56360;PMS7003;42611;51.132;13.588;2022-12-18T15:42:01;44.4;35.8;
56360;PMS7003;42611;51.132;13.588;2022-12-18T15:47:01;42.7;35.0;
56360;PMS7003;42611;51.132;13.588;2022-12-18T15:52:01;44.8;35.7;
56360;PMS7003;42611;51.132;13.588;2022-12-18T15:57:01;46.0;36.4;
56360;PMS7003;42611;51.132;13.588;2022-12-18T16:02:07;46.8;37.1;
56360;PMS7003;42611;51.132;13.588;2022-12-18T16:07:16;54.0;43.3;
56360;PMS7003;42611;51.132;13.588;2022-12-18T16:12:01;55.6;44.0;
56360;PMS7003;42611;51.132;13.588;2022-12-18T16:17:02;56.8;44.2;
56360;PMS7003;42611;51.132;13.588;2022-12-18T16:22:01;54.0;42.6;
56360;PMS7003;42611;51.132;13.588;2022-12-18T16:27:02;49.4;38.6;
56360;PMS7003;42611;51.132;13.588;2022-12-18T16:32:01;49.2;39.0;
56360;PMS7003;42611;51.132;13.588;2022-12-18T16:37:07;47.7;39.6;
56360;PMS7003;42611;51.132;13.588;2022-12-18T16:42:10;46.2;39.8;
56360;PMS7003;42611;51.132;13.588;2022-12-18T16:47:01;48.2;41.3;
56360;PMS7003;42611;51.132;13.588;2022-12-18T16:52:02;54.4;45.7;
56360;PMS7003;42611;51.132;13.588;2022-12-18T16:57:01;53.2;44.9;
56360;PMS7003;42611;51.132;13.588;2022-12-18T17:02:02;52.9;44.6;
56360;PMS7003;42611;51.132;13.588;2022-12-18T17:07:01;53.4;44.9;
56360;PMS7003;42611;51.132;13.588;2022-12-18T17:12:05;50.7;41.8;
56360;PMS7003;42611;51.132;13.588;2022-12-18T17:22:02;54.0;41.8;
56360;PMS7003;42611;51.132;13.588;2022-12-18T17:27:01;54.2;41.6;
56360;PMS7003;42611;51.132;13.588;2022-12-18T17:32:02;53.1;41.1;
56360;PMS7003;42611;51.132;13.588;2022-12-18T17:37:02;52.8;42.8;
56360;PMS7003;42611;51.132;13.588;2022-12-18T17:42:01;51.2;42.7;
56360;PMS7003;42611;51.132;13.588;2022-12-18T17:47:02;48.5;42.0;
56360;PMS7003;42611;51.132;13.588;2022-12-18T17:57:01;49.2;41.8;
56360;PMS7003;42611;51.132;13.588;2022-12-18T18:02:03;52.6;43.0;
56360;PMS7003;42611;51.132;13.588;2022-12-18T18:08:01;53.6;43.2;
56360;PMS7003;42611;51.132;13.588;2022-12-18T18:13:01;55.4;43.6;
56360;PMS7003;42611;51.132;13.588;2022-12-18T18:18:01;54.3;43.3;
56360;PMS7003;42611;51.132;13.588;2022-12-18T18:23:02;52.8;42.8;
56360;PMS7003;42611;51.132;13.588;2022-12-18T18:28:01;53.2;42.7;
56360;PMS7003;42611;51.132;13.588;2022-12-18T18:33:01;51.1;42.2;
56360;PMS7003;42611;51.132;13.588;2022-12-18T18:38:01;47.8;40.6;
56360;PMS7003;42611;51.132;13.588;2022-12-18T18:43:06;48.2;41.1;
56360;PMS7003;42611;51.132;13.588;2022-12-18T18:48:01;50.8;41.9;
56360;PMS7003;42611;51.132;13.588;2022-12-18T18:53:02;49.3;41.6;
56360;PMS7003;42611;51.132;13.588;2022-12-18T18:58:06;49.1;41.3;
56360;PMS7003;42611;51.132;13.588;2022-12-18T19:03:01;48.6;40.8;
56360;PMS7003;42611;51.132;13.588;2022-12-18T19:08:01;47.4;40.6;
56360;PMS7003;42611;51.132;13.588;2022-12-18T19:13:01;46.0;39.6;
56360;PMS7003;42611;51.132;13.588;2022-12-18T19:18:01;43.8;38.7;
56360;PMS7003;42611;51.132;13.588;2022-12-18T19:23:01;42.4;37.5;
56360;PMS7003;42611;51.132;13.588;2022-12-18T19:28:09;42.5;38.4;
56360;PMS7003;42611;51.132;13.588;2022-12-18T19:33:17;40.9;36.4;
56360;PMS7003;42611;51.132;13.588;2022-12-18T19:38:01;40.3;36.2;
56360;PMS7003;42611;51.132;13.588;2022-12-18T19:43:01;41.4;35.7;
56360;PMS7003;42611;51.132;13.588;2022-12-18T19:48:11;45.9;37.4;
56360;PMS7003;42611;51.132;13.588;2022-12-18T19:53:01;47.5;38.5;
56360;PMS7003;42611;51.132;13.588;2022-12-18T19:58:01;49.9;39.8;
56360;PMS7003;42611;51.132;13.588;2022-12-18T20:03:41;49.8;40.2;
56360;PMS7003;42611;51.132;13.588;2022-12-18T20:08:03;49.2;40.3;
56360;PMS7003;42611;51.132;13.588;2022-12-18T20:13:07;47.8;39.6;
56360;PMS7003;42611;51.132;13.588;2022-12-18T20:18:02;46.8;38.6;
56360;PMS7003;42611;51.132;13.588;2022-12-18T20:23:01;44.6;37.7;
56360;PMS7003;42611;51.132;13.588;2022-12-18T20:28:01;44.2;37.6;
56360;PMS7003;42611;51.132;13.588;2022-12-18T20:33:07;41.3;35.2;
56360;PMS7003;42611;51.132;13.588;2022-12-18T20:38:05;38.7;34.2;
56360;PMS7003;42611;51.132;13.588;2022-12-18T20:43:01;39.8;34.6;
56360;PMS7003;42611;51.132;13.588;2022-12-18T20:48:01;40.3;33.5;
56360;PMS7003;42611;51.132;13.588;2022-12-18T20:53:01;39.7;32.0;
56360;PMS7003;42611;51.132;13.588;2022-12-18T20:58:07;42.2;33.7;
56360;PMS7003;42611;51.132;13.588;2022-12-18T21:03:03;43.2;34.6;
56360;PMS7003;42611;51.132;13.588;2022-12-18T21:08:08;41.1;33.9;
56360;PMS7003;42611;51.132;13.588;2022-12-18T21:13:11;41.0;36.0;
56360;PMS7003;42611;51.132;13.588;2022-12-18T21:18:01;43.0;37.4;
56360;PMS7003;42611;51.132;13.588;2022-12-18T21:23:16;44.0;38.1;
56360;PMS7003;42611;51.132;13.588;2022-12-18T21:28:01;43.7;38.2;
56360;PMS7003;42611;51.132;13.588;2022-12-18T21:33:01;44.7;38.5;
56360;PMS7003;42611;51.132;13.588;2022-12-18T21:38:06;43.8;36.9;
56360;PMS7003;42611;51.132;13.588;2022-12-18T21:43:01;42.0;36.1;
56360;PMS7003;42611;51.132;13.588;2022-12-18T21:48:01;43.4;36.9;
56360;PMS7003;42611;51.132;13.588;2022-12-18T21:53:01;44.6;37.6;
56360;PMS7003;42611;51.132;13.588;2022-12-18T22:03:16;44.9;39.0;
56360;PMS7003;42611;51.132;13.588;2022-12-18T22:08:01;47.0;40.1;
56360;PMS7003;42611;51.132;13.588;2022-12-18T22:13:01;45.6;39.8;
56360;PMS7003;42611;51.132;13.588;2022-12-18T22:18:01;47.4;40.2;
56360;PMS7003;42611;51.132;13.588;2022-12-18T22:23:07;50.2;40.7;
56360;PMS7003;42611;51.132;13.588;2022-12-18T22:28:01;50.3;40.8;
56360;PMS7003;42611;51.132;13.588;2022-12-18T22:33:01;52.0;42.5;
56360;PMS7003;42611;51.132;13.588;2022-12-18T22:38:01;53.3;42.9;
56360;PMS7003;42611;51.132;13.588;2022-12-18T22:43:02;53.5;42.8;
56360;PMS7003;42611;51.132;13.588;2022-12-18T22:48:01;53.6;43.7;
56360;PMS7003;42611;51.132;13.588;2022-12-18T22:53:01;56.2;44.9;
56360;PMS7003;42611;51.132;13.588;2022-12-18T22:58:01;56.7;44.8;
56360;PMS7003;42611;51.132;13.588;2022-12-18T23:03:02;55.8;44.4;
56360;PMS7003;42611;51.132;13.588;2022-12-18T23:08:01;54.7;44.1;
56360;PMS7003;42611;51.132;13.588;2022-12-18T23:13:01;46.4;37.6;
56360;PMS7003;42611;51.132;13.588;2022-12-18T23:18:01;46.8;37.7;
56360;PMS7003;42611;51.132;13.588;2022-12-18T23:23:01;46.2;37.4;
56360;PMS7003;42611;51.132;13.588;2022-12-18T23:28:01;48.7;38.6;
56360;PMS7003;42611;51.132;13.588;2022-12-18T23:38:01;55.2;44.8;
56360;PMS7003;42611;51.132;13.588;2022-12-18T23:43:08;55.9;44.6;
56360;PMS7003;42611;51.132;13.588;2022-12-18T23:48:01;53.8;43.8;
56360;PMS7003;42611;51.132;13.588;2022-12-18T23:53:06;53.4;43.7;
56360;PMS7003;42611;51.132;13.588;2022-12-18T23:58:01;54.2;44.1;
